Time;durP1;ratioP1;P1;durP2;ratioP2;P2;SDS_P1;SDS_P2;PMS_P1;PMS_P2;Temp;Humidity;BMP_temperature;BMP_pressure;BME280_temperature;BME280_humidity;BME280_pressure;Samples;Min_cycle;Max_cycle;Signal;HPM_P1;HPM_P2
2022/06/25 00:00:35;;;;;;;0.53;0.50;;;;;;;18.09;94.13;95283.09;4327728;32;20232;-54
2022/06/25 00:03:07;;;;;;;0.30;0.30;;;;;;;17.92;94.38;95278.81;4332808;32;20281;-55
2022/06/25 00:05:33;;;;;;;0.10;0.10;;;;;;;17.87;94.18;95280.97;4350102;32;20217;-54
2022/06/25 00:08:00;;;;;;;2.20;1.17;;;;;;;17.94;94.22;95286.50;4336357;32;20310;-54
2022/06/25 00:10:28;;;;;;;0.00;0.00;;;;;;;17.89;94.16;95284.06;4337535;32;20242;-55
2022/06/25 00:12:54;;;;;;;0.10;0.10;;;;;;;17.96;94.49;95292.31;4338115;32;20194;-53
2022/06/25 00:15:24;;;;;;;0.10;0.10;;;;;;;17.93;94.68;95288.41;4312378;32;20185;-51
2022/06/25 00:17:52;;;;;;;0.20;0.20;;;;;;;18.01;94.71;95286.72;4326036;32;20225;-56
2022/06/25 00:20:18;;;;;;;0.07;0.07;;;;;;;17.82;93.26;95290.81;4336053;32;20190;-56
2022/06/25 00:22:45;;;;;;;0.77;0.53;;;;;;;17.87;95.31;95286.34;4325871;32;20189;-55
2022/06/25 00:25:14;;;;;;;2.23;0.10;;;;;;;17.87;95.25;95286.34;4311691;32;20194;-59
2022/06/25 00:27:40;;;;;;;11.80;0.43;;;;;;;17.71;94.69;95283.56;4313354;32;20192;-59
2022/06/25 00:30:09;;;;;;;0.20;0.20;;;;;;;17.74;95.35;95280.19;4329025;32;20233;-55
2022/06/25 00:32:56;;;;;;;0.10;0.10;;;;;;;17.67;94.54;95288.81;4316022;32;20260;-54
2022/06/25 00:35:21;;;;;;;0.17;0.17;;;;;;;17.90;94.24;95291.00;4316522;32;20193;-55
2022/06/25 00:37:47;;;;;;;0.67;0.50;;;;;;;17.83;94.45;95291.59;4323200;32;20210;-54
2022/06/25 00:40:14;;;;;;;0.27;0.20;;;;;;;17.94;94.66;95284.63;4324751;32;20241;-58
2022/06/25 00:42:45;;;;;;;0.07;0.07;;;;;;;17.95;94.32;95282.72;4317116;32;20189;-53
2022/06/25 00:45:15;;;;;;;5.33;0.30;;;;;;;17.73;92.56;95281.31;4331451;32;20220;-54
2022/06/25 00:47:43;;;;;;;0.00;0.00;;;;;;;17.94;94.46;95278.47;4298072;32;20204;-55
2022/06/25 00:50:09;;;;;;;0.10;0.03;;;;;;;17.91;94.36;95282.59;4339143;32;20204;-53
2022/06/25 00:52:45;;;;;;;0.00;0.00;;;;;;;17.84;93.81;95274.38;4328293;32;20201;-55
2022/06/25 00:55:12;;;;;;;0.97;0.67;;;;;;;17.95;94.83;95275.44;4333445;32;20193;-58
2022/06/25 00:57:43;;;;;;;0.60;0.47;;;;;;;17.81;94.35;95281.19;4313850;32;20215;-55
2022/06/25 01:00:14;;;;;;;0.03;0.03;;;;;;;17.96;94.13;95278.91;4342344;32;20213;-55
2022/06/25 01:02:42;;;;;;;0.20;0.20;;;;;;;17.77;94.44;95276.84;4314521;32;20232;-57
2022/06/25 01:05:13;;;;;;;0.10;0.10;;;;;;;17.93;94.45;95276.91;4317825;33;20193;-52
2022/06/25 01:07:44;;;;;;;0.10;0.10;;;;;;;17.82;94.03;95279.28;4336633;32;20197;-56
2022/06/25 01:10:17;;;;;;;0.30;0.30;;;;;;;17.95;93.38;95269.28;4334794;32;20197;-55
2022/06/25 01:12:44;;;;;;;0.10;0.10;;;;;;;17.98;94.13;95266.72;4316210;32;20240;-51
2022/06/25 01:15:20;;;;;;;0.23;0.23;;;;;;;17.87;94.82;95263.72;4308036;32;20201;-53
2022/06/25 01:18:02;;;;;;;0.63;0.23;;;;;;;17.91;93.92;95263.81;4288941;32;20201;-54
2022/06/25 01:20:29;;;;;;;0.20;0.20;;;;;;;17.76;94.34;95265.31;4312663;33;20212;-54
2022/06/25 01:22:56;;;;;;;0.20;0.20;;;;;;;17.77;94.07;95266.88;4329466;32;20193;-54
2022/06/25 01:25:24;;;;;;;0.10;0.10;;;;;;;17.86;93.76;95264.06;4323991;32;20212;-52
2022/06/25 01:27:52;;;;;;;0.20;0.20;;;;;;;17.91;94.29;95257.66;4336720;32;20250;-53
2022/06/25 01:30:19;;;;;;;0.27;0.27;;;;;;;17.93;93.87;95266.16;4331893;32;20185;-53
2022/06/25 01:32:47;;;;;;;0.30;0.30;;;;;;;18.03;93.81;95269.16;4333967;32;20193;-57
2022/06/25 01:35:12;;;;;;;0.13;0.10;;;;;;;17.82;93.79;95261.28;4339879;32;20264;-62
2022/06/25 01:37:39;;;;;;;0.00;0.00;;;;;;;17.93;93.48;95264.25;4339257;32;20185;-52
2022/06/25 01:40:05;;;;;;;0.10;0.10;;;;;;;17.94;94.05;95267.72;4330230;32;20198;-56
2022/06/25 01:45:18;;;;;;;0.10;0.10;;;;;;;17.85;94.24;95271.34;4315589;33;20219;-56
2022/06/25 01:47:45;;;;;;;0.20;0.20;;;;;;;17.78;93.33;95268.44;4338795;32;20193;-55
2022/06/25 01:50:16;;;;;;;0.20;0.20;;;;;;;17.76;93.46;95264.53;4339629;32;20201;-56
2022/06/25 01:52:45;;;;;;;0.17;0.17;;;;;;;17.86;94.82;95269.44;4321775;33;20202;-55
2022/06/25 01:55:14;;;;;;;0.13;0.13;;;;;;;17.90;93.54;95270.31;4324131;32;20250;-57
2022/06/25 01:57:43;;;;;;;0.10;0.10;;;;;;;18.00;93.45;95275.19;4332615;32;20194;-54
2022/06/25 02:00:15;;;;;;;0.40;0.40;;;;;;;18.03;93.98;95263.00;4317027;33;20225;-50
2022/06/25 02:02:42;;;;;;;0.00;0.00;;;;;;;17.91;94.08;95271.88;4321375;32;20254;-55
2022/06/25 02:05:11;;;;;;;0.20;0.20;;;;;;;17.89;93.26;95267.97;4295884;32;20202;-56
2022/06/25 02:07:37;;;;;;;0.20;0.20;;;;;;;17.82;93.25;95272.03;4313286;32;20193;-56
2022/06/25 02:10:07;;;;;;;0.00;0.00;;;;;;;17.98;93.47;95273.97;4306985;32;20244;-55
2022/06/25 02:12:35;;;;;;;0.10;0.10;;;;;;;17.73;94.51;95271.38;4321407;32;20193;-55
2022/06/25 02:15:07;;;;;;;1.00;0.37;;;;;;;17.83;93.91;95278.97;4319532;32;20273;-56
2022/06/25 02:17:34;;;;;;;0.27;0.27;;;;;;;17.94;93.75;95276.56;4325950;32;20300;-54
2022/06/25 02:19:59;;;;;;;0.20;0.20;;;;;;;17.94;93.58;95278.47;4308382;32;20209;-55
2022/06/25 02:22:27;;;;;;;0.13;0.13;;;;;;;17.94;93.78;95278.47;4339515;32;20197;-54
2022/06/25 02:24:54;;;;;;;0.63;0.63;;;;;;;18.04;94.02;95280.69;4340411;32;20208;-54
2022/06/25 02:27:20;;;;;;;0.10;0.10;;;;;;;17.87;92.63;95290.56;4304791;32;20200;-52
2022/06/25 02:29:47;;;;;;;0.10;0.10;;;;;;;17.87;94.06;95279.81;4335483;32;20182;-55
2022/06/25 02:32:14;;;;;;;0.23;0.23;;;;;;;17.96;93.46;95286.97;4316765;32;20237;-54
2022/06/25 02:34:39;;;;;;;0.20;0.20;;;;;;;17.92;92.85;95278.81;4323679;32;20198;-54
2022/06/25 02:37:06;;;;;;;0.23;0.03;;;;;;;17.99;93.55;95286.28;4351235;32;20204;-52
2022/06/25 02:39:31;;;;;;;0.00;0.00;;;;;;;17.84;92.60;95282.41;4322422;32;20193;-53
2022/06/25 02:41:58;;;;;;;0.20;0.20;;;;;;;17.84;92.87;95288.56;4326274;32;20197;-54
2022/06/25 02:44:24;;;;;;;0.00;0.00;;;;;;;17.92;93.49;95292.22;4333731;32;20323;-56
2022/06/25 02:46:53;;;;;;;0.33;0.20;;;;;;;17.95;93.59;95293.44;4338748;32;20251;-51
2022/06/25 02:49:19;;;;;;;0.20;0.20;;;;;;;17.89;93.62;95284.84;4334009;32;20190;-51
2022/06/25 02:51:45;;;;;;;0.30;0.30;;;;;;;17.91;93.25;95282.59;4335474;32;20224;-54
2022/06/25 02:54:11;;;;;;;0.00;0.00;;;;;;;17.88;93.51;95291.34;4304186;32;20201;-56
2022/06/25 02:59:23;;;;;;;0.07;0.07;;;;;;;17.89;92.90;95294.81;4336902;32;20262;-57
2022/06/25 03:01:49;;;;;;;0.10;0.10;;;;;;;17.78;92.23;95289.91;4316832;32;20245;-55
2022/06/25 03:04:16;;;;;;;0.17;0.17;;;;;;;17.70;94.01;95290.81;4318259;32;20193;-53
2022/06/25 03:06:41;;;;;;;0.23;0.23;;;;;;;17.76;93.95;95286.78;4332557;32;20268;-54
2022/06/25 03:09:09;;;;;;;0.40;0.40;;;;;;;17.78;93.94;95283.78;4312554;32;20200;-56
2022/06/25 03:11:36;;;;;;;0.10;0.10;;;;;;;17.65;94.28;95291.09;4321043;32;20190;-53
2022/06/25 03:14:05;;;;;;;0.37;0.13;;;;;;;17.78;93.78;95284.56;4326324;32;20257;-57
2022/06/25 03:16:31;;;;;;;0.10;0.10;;;;;;;17.71;93.03;95289.72;4328342;32;20308;-56
2022/06/25 03:19:04;;;;;;;0.20;0.20;;;;;;;17.90;93.51;95291.78;4313391;32;20210;-54
2022/06/25 03:21:30;;;;;;;0.20;0.20;;;;;;;17.91;92.97;95297.94;4311823;32;20203;-53
2022/06/25 03:23:55;;;;;;;0.17;0.17;;;;;;;17.98;93.26;95298.13;4338771;32;20192;-54
2022/06/25 03:26:22;;;;;;;0.20;0.20;;;;;;;17.89;92.67;95300.94;4339738;32;20193;-54
2022/06/25 03:28:50;;;;;;;0.30;0.23;;;;;;;17.96;92.52;95305.75;4317453;32;20197;-56
2022/06/25 03:31:17;;;;;;;0.00;0.00;;;;;;;17.93;92.40;95303.75;4343519;32;20204;-55
2022/06/25 03:33:43;;;;;;;0.50;0.50;;;;;;;17.87;92.48;95310.50;4313361;32;20190;-57
2022/06/25 03:36:13;;;;;;;0.17;0.17;;;;;;;17.96;93.13;95311.13;4322565;32;20197;-55
2022/06/25 03:38:39;;;;;;;0.30;0.30;;;;;;;17.95;92.00;95314.94;4351494;32;20217;-51
2022/06/25 03:41:38;;;;;;;0.93;0.47;;;;;;;17.85;93.35;95306.25;4330230;32;20193;-54
2022/06/25 03:44:07;;;;;;;0.43;0.43;;;;;;;17.89;93.39;95310.91;4346693;32;20290;-53
2022/06/25 03:46:35;;;;;;;0.30;0.30;;;;;;;17.90;93.09;95312.47;4294582;32;20193;-54
2022/06/25 03:49:02;;;;;;;0.37;0.30;;;;;;;17.98;92.99;95315.03;4343607;32;20273;-53
2022/06/25 03:51:29;;;;;;;0.37;0.37;;;;;;;18.02;92.74;95320.50;4324034;32;20201;-54
2022/06/25 03:53:57;;;;;;;0.10;0.10;;;;;;;18.10;92.24;95311.50;4327694;32;20259;-51
2022/06/25 03:56:24;;;;;;;0.23;0.23;;;;;;;18.13;91.91;95311.63;4330372;32;20247;-51
2022/06/25 03:58:51;;;;;;;0.00;0.00;;;;;;;18.18;91.74;95319.44;4348033;32;20201;-50
2022/06/25 04:01:17;;;;;;;0.00;0.00;;;;;;;18.23;91.88;95320.31;4319595;32;20197;-51
2022/06/25 04:03:44;;;;;;;0.37;0.33;;;;;;;18.04;91.48;95324.41;4313451;32;20198;-52
2022/06/25 04:06:18;;;;;;;0.20;0.20;;;;;;;18.20;91.11;95322.56;4341926;32;20196;-54
2022/06/25 04:08:44;;;;;;;0.10;0.10;;;;;;;18.02;92.74;95325.88;4358302;32;20228;-61
2022/06/25 04:11:16;;;;;;;0.30;0.30;;;;;;;18.04;92.10;95329.78;4346302;32;20197;-54
2022/06/25 04:13:42;;;;;;;0.10;0.10;;;;;;;17.99;91.37;95321.19;4309270;32;20194;-55
2022/06/25 04:16:24;;;;;;;0.20;0.20;;;;;;;17.95;91.55;95326.44;4318359;32;20243;-55
2022/06/25 04:18:51;;;;;;;0.33;0.13;;;;;;;17.92;91.52;95324.44;4336109;32;20213;-53
2022/06/25 04:21:17;;;;;;;7.20;0.40;;;;;;;18.08;92.16;95329.91;4329117;32;20193;-52
2022/06/25 04:23:43;;;;;;;0.47;0.47;;;;;;;17.95;91.13;95325.66;4326682;32;20200;-58
2022/06/25 04:26:15;;;;;;;0.20;0.20;;;;;;;17.97;91.90;95323.41;4318152;32;20185;-52
2022/06/25 04:31:27;;;;;;;0.40;0.23;;;;;;;18.04;90.96;95339.75;4327534;32;20232;-54
2022/06/25 04:33:53;;;;;;;0.27;0.27;;;;;;;18.09;91.72;95337.56;4299376;32;20189;-53
2022/06/25 04:36:21;;;;;;;8.40;0.53;;;;;;;18.17;91.66;95344.72;4332251;32;20199;-56
2022/06/25 04:38:48;;;;;;;0.00;0.00;;;;;;;18.19;91.54;95350.53;4321439;32;20185;-56
2022/06/25 04:41:17;;;;;;;0.20;0.10;;;;;;;18.22;91.32;95345.63;4312621;32;20217;-53
2022/06/25 04:43:45;;;;;;;0.20;0.20;;;;;;;18.15;91.64;95346.19;4326663;32;20202;-54
2022/06/25 04:46:14;;;;;;;0.20;0.20;;;;;;;18.19;91.01;95339.03;4324977;32;20217;-52
2022/06/25 04:48:40;;;;;;;0.27;0.27;;;;;;;18.27;91.30;95346.16;4285071;32;20214;-55
2022/06/25 04:51:13;;;;;;;0.00;0.00;;;;;;;18.24;90.87;95351.44;4323460;32;20228;-54
2022/06/25 04:53:55;;;;;;;0.27;0.27;;;;;;;18.28;90.57;95350.41;4338940;32;20193;-53
2022/06/25 04:56:40;;;;;;;0.03;0.03;;;;;;;18.03;90.16;95344.34;4302349;32;20243;-54
2022/06/25 04:59:07;;;;;;;0.30;0.30;;;;;;;18.02;91.65;95350.03;4331849;32;20201;-53
2022/06/25 05:01:33;;;;;;;0.33;0.33;;;;;;;18.10;91.65;95357.16;4308278;32;20265;-54
2022/06/25 05:04:01;;;;;;;0.10;0.10;;;;;;;18.19;91.37;95358.59;4344041;32;20207;-52
2022/06/25 05:06:27;;;;;;;0.10;0.10;;;;;;;18.00;89.83;95365.69;4334604;32;20208;-52
2022/06/25 05:08:55;;;;;;;0.10;0.10;;;;;;;18.12;91.31;95358.38;4336452;32;20248;-51
2022/06/25 05:11:20;;;;;;;0.10;0.10;;;;;;;17.98;89.25;95362.56;4290988;32;20205;-52
2022/06/25 05:13:47;;;;;;;0.57;0.40;;;;;;;18.17;90.89;95368.13;4334386;32;20231;-52
2022/06/25 05:16:18;;;;;;;0.00;0.00;;;;;;;18.04;89.42;95367.37;4332723;32;20248;-53
2022/06/25 05:18:47;;;;;;;0.40;0.40;;;;;;;18.03;90.87;95376.56;4291234;33;20280;-54
2022/06/25 05:21:14;;;;;;;0.10;0.10;;;;;;;18.05;91.17;95368.16;4328226;32;20193;-53
2022/06/25 05:23:39;;;;;;;0.00;0.00;;;;;;;17.99;89.85;95372.19;4326118;33;20190;-49
2022/06/25 05:26:19;;;;;;;0.13;0.13;;;;;;;18.03;88.89;95371.19;4303864;33;20320;-53
2022/06/25 05:28:46;;;;;;;1.23;1.13;;;;;;;18.05;86.99;95378.91;4301856;32;20177;-53
2022/06/25 05:31:14;;;;;;;0.10;0.10;;;;;;;18.01;87.40;95373.41;4335454;32;20202;-62
2022/06/25 05:33:43;;;;;;;2.03;0.63;;;;;;;18.03;90.25;95381.91;4321973;32;20197;-54
2022/06/25 05:36:15;;;;;;;0.10;0.10;;;;;;;17.95;89.60;95384.72;4305073;32;20193;-53
2022/06/25 05:38:45;;;;;;;0.57;0.53;;;;;;;17.80;87.48;95381.63;4347488;32;20216;-55
2022/06/25 05:41:17;;;;;;;0.10;0.10;;;;;;;17.95;90.10;95380.13;4304421;33;20194;-52
2022/06/25 05:43:42;;;;;;;0.03;0.03;;;;;;;17.95;89.66;95380.13;4352438;32;20193;-53
2022/06/25 05:46:14;;;;;;;0.27;0.27;;;;;;;17.99;90.03;95385.62;4333417;32;20216;-53
2022/06/25 05:48:39;;;;;;;0.97;0.40;;;;;;;17.87;88.64;95377.59;4338754;32;20194;-55
2022/06/25 05:51:18;;;;;;;0.37;0.37;;;;;;;18.07;86.94;95382.81;4340348;32;20216;-52
2022/06/25 05:53:43;;;;;;;0.00;0.00;;;;;;;18.01;88.82;95383.38;4337801;32;20251;-55
2022/06/25 05:56:16;;;;;;;0.00;0.00;;;;;;;18.07;88.36;95390.09;4323514;32;20268;-52
2022/06/25 05:58:43;;;;;;;0.67;0.30;;;;;;;18.00;86.08;95387.97;4323308;32;20197;-57
2022/06/25 06:01:15;;;;;;;0.10;0.10;;;;;;;18.15;86.15;95394.53;4327390;32;20307;-53
2022/06/25 06:03:45;;;;;;;0.00;0.00;;;;;;;18.20;86.62;95389.72;4333245;32;20228;-52
2022/06/25 06:06:14;;;;;;;0.10;0.10;;;;;;;18.26;87.56;95392.16;4295548;33;20201;-56
2022/06/25 06:08:40;;;;;;;0.00;0.00;;;;;;;18.38;87.53;95397.50;4327987;32;20193;-54
2022/06/25 06:11:18;;;;;;;0.00;0.00;;;;;;;18.23;87.38;95392.84;4327039;32;20213;-53
2022/06/25 06:13:43;;;;;;;0.17;0.17;;;;;;;18.31;87.45;95397.28;4305227;32;20243;-54
2022/06/25 06:16:10;;;;;;;0.20;0.20;;;;;;;18.43;86.64;95395.34;4319593;32;20189;-53
2022/06/25 06:18:36;;;;;;;10.43;1.23;;;;;;;18.44;85.96;95401.50;4345028;32;20253;-53
2022/06/25 06:21:03;;;;;;;0.57;0.20;;;;;;;18.46;87.82;95404.63;4339299;32;20283;-53
2022/06/25 06:23:30;;;;;;;0.00;0.00;;;;;;;18.54;85.88;95396.41;4285723;32;20305;-56
2022/06/25 06:25:58;;;;;;;0.43;0.33;;;;;;;18.56;86.42;95409.50;4352027;32;20201;-53
2022/06/25 06:28:24;;;;;;;0.20;0.20;;;;;;;18.54;86.46;95412.53;4326006;32;20238;-53
2022/06/25 06:30:51;;;;;;;0.17;0.17;;;;;;;18.60;87.79;95406.97;4334996;32;20194;-54
2022/06/25 06:33:21;;;;;;;0.20;0.20;;;;;;;18.51;85.77;95415.91;4341146;32;20219;-55
2022/06/25 06:35:48;;;;;;;4.00;0.70;;;;;;;18.51;86.03;95418.59;4336423;32;20205;-55
2022/06/25 06:38:21;;;;;;;0.17;0.17;;;;;;;18.63;87.93;95423.19;4316588;32;20212;-57
2022/06/25 06:40:47;;;;;;;0.23;0.23;;;;;;;18.65;87.50;95417.47;4329233;32;20235;-57
2022/06/25 06:43:15;;;;;;;0.10;0.10;;;;;;;18.65;86.59;95433.59;4324007;32;20181;-57
2022/06/25 06:45:45;;;;;;;0.30;0.30;;;;;;;18.61;86.74;95428.13;4326746;32;20214;-56
2022/06/25 06:48:12;;;;;;;0.03;0.03;;;;;;;18.74;86.90;95431.53;4297533;32;20194;-54
2022/06/25 06:50:38;;;;;;;0.20;0.20;;;;;;;18.56;86.25;95431.00;4328873;32;20204;-55
2022/06/25 06:53:04;;;;;;;0.10;0.10;;;;;;;18.37;84.96;95428.94;4311429;32;21039;-54
2022/06/25 06:55:31;;;;;;;0.10;0.10;;;;;;;18.41;87.98;95435.19;4339791;32;20250;-53
2022/06/25 06:57:57;;;;;;;0.10;0.10;;;;;;;18.52;85.99;95433.59;4337841;32;20193;-58
2022/06/25 07:00:22;;;;;;;0.17;0.10;;;;;;;18.44;86.45;95437.22;4306898;32;20209;-51
2022/06/25 07:02:49;;;;;;;0.57;0.40;;;;;;;18.70;85.18;95428.78;4313633;32;20201;-53
2022/06/25 07:05:14;;;;;;;0.30;0.30;;;;;;;18.69;83.77;95431.78;4314924;32;20219;-51
2022/06/25 07:07:42;;;;;;;1.03;0.73;;;;;;;18.76;85.14;95419.31;4352214;32;20201;-53
2022/06/25 07:10:09;;;;;;;0.47;0.30;;;;;;;18.83;87.95;95421.41;4333283;32;20206;-51
2022/06/25 07:12:35;;;;;;;0.00;0.00;;;;;;;18.85;86.59;95422.66;4306519;32;20271;-52
2022/06/25 07:15:00;;;;;;;0.20;0.20;;;;;;;18.81;85.38;95432.53;4356731;32;20194;-54
2022/06/25 07:17:27;;;;;;;0.50;0.50;;;;;;;18.98;86.15;95430.66;4339884;32;20263;-53
2022/06/25 07:19:54;;;;;;;0.20;0.20;;;;;;;19.04;85.88;95423.91;4348298;32;20198;-53
2022/06/25 07:22:26;;;;;;;0.10;0.10;;;;;;;19.08;83.69;95417.50;4337971;32;20205;-54
2022/06/25 07:24:54;;;;;;;0.37;0.37;;;;;;;18.95;84.63;95424.03;4326400;32;20239;-54
2022/06/25 07:27:22;;;;;;;0.30;0.30;;;;;;;19.04;86.57;95416.62;4302901;32;20205;-51
2022/06/25 07:29:48;;;;;;;1.30;0.60;;;;;;;18.79;83.98;95417.84;4305480;32;20223;-53
2022/06/25 07:32:15;;;;;;;0.57;0.57;;;;;;;18.94;85.47;95414.41;4316654;32;20224;-55
2022/06/25 07:34:42;;;;;;;0.10;0.10;;;;;;;19.03;86.20;95409.66;4342757;32;20200;-56
2022/06/25 07:37:09;;;;;;;0.37;0.37;;;;;;;18.93;84.07;95417.44;4326545;32;20227;-52
2022/06/25 07:39:36;;;;;;;0.00;0.00;;;;;;;18.95;84.04;95413.28;4327779;32;20264;-54
2022/06/25 07:42:04;;;;;;;0.67;0.67;;;;;;;18.82;84.14;95406.41;4334557;32;20211;-54
2022/06/25 07:44:30;;;;;;;0.20;0.20;;;;;;;19.01;85.18;95403.84;4342420;32;20193;-53
2022/06/25 07:46:57;;;;;;;0.23;0.23;;;;;;;19.01;82.14;95406.53;4328050;32;20251;-54
2022/06/25 07:49:25;;;;;;;0.93;0.93;;;;;;;19.11;79.70;95402.56;4338742;32;20216;-53
2022/06/25 07:51:57;;;;;;;0.10;0.10;;;;;;;19.02;82.00;95410.78;4323878;32;20193;-50
2022/06/25 07:54:26;;;;;;;0.20;0.20;;;;;;;19.03;82.32;95409.66;4335000;32;20189;-56
2022/06/25 07:56:54;;;;;;;0.10;0.10;;;;;;;19.20;81.82;95395.88;4339845;32;20197;-53
2022/06/25 07:59:20;;;;;;;0.57;0.57;;;;;;;19.34;79.90;95400.84;4332100;32;20193;-53
2022/06/25 08:01:47;;;;;;;0.53;0.53;;;;;;;19.48;79.75;95400.41;4327058;32;20200;-58
2022/06/25 08:04:18;;;;;;;0.90;0.33;;;;;;;19.55;78.49;95395.22;4343425;32;20274;-53
2022/06/25 08:06:44;;;;;;;0.10;0.10;;;;;;;19.57;77.09;95401.03;4338822;32;20229;-54
2022/06/25 08:09:10;;;;;;;2.67;0.67;;;;;;;19.65;80.36;95405.47;4292075;32;20217;-51
2022/06/25 08:11:37;;;;;;;0.00;0.00;;;;;;;19.67;80.40;95407.81;4330494;32;20194;-52
2022/06/25 08:14:07;;;;;;;0.20;0.20;;;;;;;19.52;76.79;95406.72;4336212;32;20216;-53
2022/06/25 08:16:33;;;;;;;0.10;0.10;;;;;;;19.47;78.75;95405.03;4358072;32;27421;-56
2022/06/25 08:19:00;;;;;;;0.10;0.10;;;;;;;19.61;78.04;95404.59;4325089;32;20205;-50
2022/06/25 08:21:25;;;;;;;0.10;0.10;;;;;;;19.81;77.06;95400.84;4324358;32;20220;-53
2022/06/25 08:23:52;;;;;;;0.10;0.10;;;;;;;19.84;76.93;95402.06;4337942;32;20248;-55
2022/06/25 08:26:20;;;;;;;0.10;0.10;;;;;;;19.80;74.58;95401.97;4342990;32;20190;-53
2022/06/25 08:28:47;;;;;;;0.30;0.30;;;;;;;19.84;74.70;95396.66;4335273;32;20188;-53
2022/06/25 08:31:30;;;;;;;0.10;0.10;;;;;;;19.88;73.34;95402.94;4337650;32;20255;-52
2022/06/25 08:33:58;;;;;;;0.07;0.07;;;;;;;19.92;74.33;95400.31;4345911;32;20239;-54
2022/06/25 08:36:24;;;;;;;0.90;0.50;;;;;;;19.94;75.91;95398.06;4313634;32;20255;-54
2022/06/25 08:38:51;;;;;;;0.10;0.10;;;;;;;20.08;72.44;95393.75;4343663;32;20189;-56
2022/06/25 08:41:20;;;;;;;0.00;0.00;;;;;;;20.21;73.80;95391.72;4349272;32;20241;-53
2022/06/25 08:43:46;;;;;;;0.40;0.40;;;;;;;20.04;73.49;95392.91;4326041;32;20237;-62
2022/06/25 08:46:19;;;;;;;0.13;0.13;;;;;;;20.19;74.43;95393.97;4318746;32;20194;-55
2022/06/25 08:48:49;;;;;;;1.70;0.90;;;;;;;20.26;73.16;95399.53;4333074;32;20319;-53
2022/06/25 08:51:23;;;;;;;0.70;0.50;;;;;;;20.31;70.70;95395.78;4326790;32;20289;-50
2022/06/25 08:54:03;;;;;;;0.20;0.20;;;;;;;20.43;72.36;95391.06;4321965;32;20256;-54
2022/06/25 08:56:34;;;;;;;0.20;0.20;;;;;;;20.39;72.40;95382.09;4334514;32;20220;-52
2022/06/25 08:58:59;;;;;;;0.30;0.30;;;;;;;20.48;72.40;95382.69;4342040;32;20197;-54
2022/06/25 09:01:26;;;;;;;0.33;0.33;;;;;;;20.57;72.91;95380.56;4327122;32;20236;-53
2022/06/25 09:03:53;;;;;;;0.10;0.10;;;;;;;20.45;72.20;95380.69;4321237;32;20255;-54
2022/06/25 09:06:27;;;;;;;0.17;0.17;;;;;;;20.37;71.50;95381.69;4336758;32;20178;-54
2022/06/25 09:09:34;;;;;;;0.20;0.20;;;;;;;20.48;71.46;95377.31;4331482;32;20207;-54
2022/06/25 09:12:08;;;;;;;0.07;0.07;;;;;;;20.66;74.48;95371.47;4355954;32;20193;-54
2022/06/25 09:14:40;;;;;;;0.30;0.30;;;;;;;20.43;70.12;95366.78;4355880;32;20207;-54
2022/06/25 09:17:14;;;;;;;0.13;0.13;;;;;;;20.65;73.07;95367.22;4316583;32;20189;-53
2022/06/25 09:19:51;;;;;;;0.27;0.27;;;;;;;20.70;70.39;95377.72;4350803;32;20197;-55
2022/06/25 09:22:20;;;;;;;0.77;0.77;;;;;;;20.89;70.81;95375.78;4323772;32;20197;-54
2022/06/25 09:24:50;;;;;;;0.30;0.30;;;;;;;20.93;71.13;95375.84;4330860;33;20193;-56
2022/06/25 09:27:40;;;;;;;0.67;0.27;;;;;;;20.97;67.97;95370.53;4333518;32;20200;-54
2022/06/25 09:30:10;;;;;;;0.27;0.27;;;;;;;20.92;67.86;95368.88;4340835;32;20193;-55
2022/06/25 09:32:54;;;;;;;0.10;0.10;;;;;;;21.20;69.02;95363.22;4342211;32;20202;-55
2022/06/25 09:35:42;;;;;;;0.30;0.30;;;;;;;21.33;69.89;95369.22;4310193;32;20197;-54
2022/06/25 09:38:16;;;;;;;1.60;0.37;;;;;;;;;;4330403;32;20284;-53
2022/06/25 09:41:00;;;;;;;0.10;0.10;;;;;;;21.36;66.15;95368.53;4355726;32;20188;-51
2022/06/25 09:43:47;;;;;;;0.17;0.17;;;;;;;21.38;65.23;95369.72;4354766;32;20209;-52
2022/06/25 09:46:25;;;;;;;0.07;0.07;;;;;;;21.48;66.76;95363.69;4315569;32;20250;-63
2022/06/25 09:48:52;;;;;;;0.17;0.17;;;;;;;21.18;65.46;95355.47;4314236;32;20193;-53
2022/06/25 09:51:24;;;;;;;0.23;0.23;;;;;;;21.15;67.86;95361.59;4307657;33;20193;-52
2022/06/25 09:53:58;;;;;;;0.43;0.43;;;;;;;21.19;67.47;95365.13;4345205;32;20201;-54
2022/06/25 09:56:34;;;;;;;0.30;0.30;;;;;;;21.24;66.12;95358.66;4320623;32;20234;-54
2022/06/25 09:59:02;;;;;;;0.20;0.20;;;;;;;21.44;66.62;95357.47;4348950;32;20201;-55
2022/06/25 10:01:34;;;;;;;0.20;0.20;;;;;;;21.50;nan;95366.03;4313054;32;20248;-55
2022/06/25 10:04:03;;;;;;;0.00;0.00;;;;;;;21.60;63.98;95357.34;4315396;32;20248;-51
2022/06/25 10:06:35;;;;;;;0.20;0.20;;;;;;;21.79;64.59;95356.47;4275662;33;20393;-54
2022/06/25 10:09:07;;;;;;;0.30;0.30;;;;;;;21.89;64.09;95351.19;4345293;32;20197;-54
2022/06/25 10:11:34;;;;;;;0.17;0.17;;;;;;;21.94;65.37;95342.78;4335013;32;20209;-55
2022/06/25 10:14:00;;;;;;;0.27;0.27;;;;;;;21.69;64.03;95347.03;4328403;32;20301;-54
2022/06/25 10:16:29;;;;;;;1.00;0.37;;;;;;;21.58;66.19;95340.72;4342217;32;20202;-53
2022/06/25 10:18:55;;;;;;;0.00;0.00;;;;;;;21.68;64.61;95342.00;4348396;32;20224;-56
2022/06/25 10:21:32;;;;;;;0.10;0.10;;;;;;;21.84;60.17;95348.81;4299001;32;20206;-53
2022/06/25 10:24:10;;;;;;;0.13;0.13;;;;;;;21.85;62.17;95341.47;4343055;32;20220;-55
2022/06/25 10:26:38;;;;;;;0.20;0.20;;;;;;;21.78;60.91;95331.38;4340394;32;20272;-55
2022/06/25 10:29:23;;;;;;;1.73;1.63;;;;;;;21.90;60.30;95330.34;4317588;32;20268;-55
2022/06/25 10:31:48;;;;;;;1.40;0.83;;;;;;;22.13;61.32;95322.19;4322083;32;20235;-55
2022/06/25 10:34:19;;;;;;;0.07;0.07;;;;;;;22.34;62.50;95325.16;4343484;32;20220;-55
2022/06/25 10:36:57;;;;;;;0.10;0.10;;;;;;;22.44;61.26;95321.81;4347123;32;20255;-55
2022/06/25 10:39:40;;;;;;;0.10;0.10;;;;;;;22.58;60.91;95316.56;4355817;32;20200;-53
2022/06/25 10:45:23;;;;;;;0.30;0.30;;;;;;;22.76;61.57;95315.97;4331653;32;20231;-54
2022/06/25 10:47:53;;;;;;;0.60;0.60;;;;;;;22.73;57.34;95314.78;4334927;32;20192;-56
2022/06/25 10:50:28;;;;;;;0.40;0.40;;;;;;;22.76;56.46;95311.34;4318692;32;20190;-54
2022/06/25 10:53:12;;;;;;;0.90;0.90;;;;;;;22.59;54.85;95307.31;4312749;32;20219;-55
2022/06/25 10:55:59;;;;;;;0.20;0.20;;;;;;;22.61;57.38;95299.59;4330895;32;20280;-56
2022/06/25 10:58:42;;;;;;;0.20;0.20;;;;;;;22.82;53.83;95309.12;4319747;32;20201;-56
2022/06/25 11:01:36;;;;;;;0.30;0.30;;;;;;;22.78;54.93;95308.28;4350087;32;20349;-54
2022/06/25 11:04:06;;;;;;;0.50;0.37;;;;;;;22.90;56.13;95300.66;4345558;32;20189;-55
2022/06/25 11:06:38;;;;;;;0.13;0.10;;;;;;;22.79;58.46;95307.16;4341792;32;20208;-54
2022/06/25 11:09:12;;;;;;;0.23;0.23;;;;;;;22.71;59.36;95310.88;4344010;32;20281;-56
2022/06/25 11:11:40;;;;;;;0.17;0.17;;;;;;;22.50;58.49;95304.09;4352582;32;20244;-55
2022/06/25 11:14:24;;;;;;;0.20;0.20;;;;;;;22.53;59.39;95313.41;4355260;32;20200;-55
2022/06/25 11:16:56;;;;;;;1.13;0.77;;;;;;;22.52;57.22;95307.22;4352753;32;20235;-60
2022/06/25 11:19:23;;;;;;;0.13;0.13;;;;;;;22.58;55.01;95297.63;4338297;32;20243;-56
2022/06/25 11:21:52;;;;;;;0.87;0.30;;;;;;;22.75;55.84;95296.25;4290512;32;20210;-54
2022/06/25 11:24:26;;;;;;;0.30;0.30;;;;;;;22.80;54.69;95295.94;4278155;32;20194;-53
2022/06/25 11:29:54;;;;;;;0.20;0.20;;;;;;;23.02;53.60;95288.81;4295355;32;20204;-56
2022/06/25 11:32:31;;;;;;;0.10;0.10;;;;;;;23.08;52.97;95290.00;4315501;32;20188;-54
2022/06/25 11:35:01;;;;;;;0.73;0.40;;;;;;;22.96;53.12;95299.19;4327808;32;20216;-55
2022/06/25 11:37:31;;;;;;;0.50;0.43;;;;;;;22.78;52.97;95292.06;4301905;32;20202;-54
2022/06/25 11:39:58;;;;;;;0.20;0.20;;;;;;;22.66;53.96;95290.34;4328922;32;20204;-51
2022/06/25 11:42:24;;;;;;;0.27;0.27;;;;;;;22.70;52.60;95282.28;4317443;32;20197;-54
2022/06/25 11:44:56;;;;;;;0.63;0.47;;;;;;;22.52;55.68;95288.28;4305351;32;20292;-54
2022/06/25 11:47:35;;;;;;;0.10;0.10;;;;;;;22.38;53.29;95285.44;4344208;32;20209;-54
2022/06/25 11:50:11;;;;;;;0.37;0.37;;;;;;;22.44;52.58;95277.78;4341533;32;20227;-55
2022/06/25 11:52:50;;;;;;;0.17;0.17;;;;;;;22.34;54.25;95279.22;4312247;32;20197;-54
2022/06/25 11:55:16;;;;;;;0.20;0.20;;;;;;;22.35;55.88;95274.59;4322679;32;20189;-54
2022/06/25 11:57:43;;;;;;;0.20;0.20;;;;;;;22.43;54.65;95270.81;4333019;32;20264;-52
2022/06/25 12:00:14;;;;;;;0.47;0.47;;;;;;;22.50;55.52;95271.66;4337769;32;20196;-52